地図

経路データ

SID SEASON NUMBER BASIN SUBBASIN NAME ISO_TIME NATURE LAT LON WMO_WIND WMO_PRES WMO_AGENCY TRACK_TYPE DIST2LAND LANDFALL IFLAG USA_AGENCY USA_ATCF_ID USA_LAT USA_LON USA_RECORD USA_STATUS USA_WIND USA_PRES USA_SSHS USA_R34_NE USA_R34_SE USA_R34_SW USA_R34_NW USA_R50_NE USA_R50_SE USA_R50_SW USA_R50_NW USA_R64_NE USA_R64_SE USA_R64_SW USA_R64_NW USA_POCI USA_ROCI USA_RMW USA_EYE TOKYO_LAT TOKYO_LON TOKYO_GRADE TOKYO_WIND TOKYO_PRES TOKYO_R50_DIR TOKYO_R50_LONG TOKYO_R50_SHORT TOKYO_R30_DIR TOKYO_R30_LONG TOKYO_R30_SHORT TOKYO_LAND CMA_LAT CMA_LON CMA_CAT CMA_WIND CMA_PRES HKO_LAT HKO_LON HKO_CAT HKO_WIND HKO_PRES NEWDELHI_LAT NEWDELHI_LON NEWDELHI_GRADE NEWDELHI_WIND NEWDELHI_PRES NEWDELHI_CI NEWDELHI_DP NEWDELHI_POCI REUNION_LAT REUNION_LON REUNION_TYPE REUNION_WIND REUNION_PRES REUNION_TNUM REUNION_CI REUNION_RMW REUNION_R34_NE REUNION_R34_SE REUNION_R34_SW REUNION_R34_NW REUNION_R50_NE REUNION_R50_SE REUNION_R50_SW REUNION_R50_NW REUNION_R64_NE REUNION_R64_SE REUNION_R64_SW REUNION_R64_NW BOM_LAT BOM_LON BOM_TYPE BOM_WIND BOM_PRES BOM_TNUM BOM_CI BOM_RMW BOM_R34_NE BOM_R34_SE BOM_R34_SW BOM_R34_NW BOM_R50_NE BOM_R50_SE BOM_R50_SW BOM_R50_NW BOM_R64_NE BOM_R64_SE BOM_R64_SW BOM_R64_NW BOM_ROCI BOM_POCI BOM_EYE BOM_POS_METHOD BOM_PRES_METHOD NADI_LAT NADI_LON NADI_CAT NADI_WIND NADI_PRES WELLINGTON_LAT WELLINGTON_LON WELLINGTON_WIND WELLINGTON_PRES DS824_LAT DS824_LON DS824_STAGE DS824_WIND DS824_PRES TD9636_LAT TD9636_LON TD9636_STAGE TD9636_WIND TD9636_PRES TD9635_LAT TD9635_LON TD9635_WIND TD9635_PRES TD9635_ROCI NEUMANN_LAT NEUMANN_LON NEUMANN_CLASS NEUMANN_WIND NEUMANN_PRES MLC_LAT MLC_LON MLC_CLASS MLC_WIND MLC_PRES USA_GUST BOM_GUST BOM_GUST_PER REUNION_GUST REUNION_GUST_PER USA_SEAHGT USA_SEARAD_NE USA_SEARAD_SE USA_SEARAD_SW USA_SEARAD_NW STORM_SPEED STORM_DIR
1964352N05093 1964 120 NI BB NOT_NAMED 1964-12-17 03:00:00 NR 5.00000 93.0000 main 246 246 __________O___ -1 5.00000 93.0000 1 0 0
1964352N05093 1964 120 NI BB NOT_NAMED 1964-12-17 06:00:00 NR 5.00000 92.9922 main 246 246 __________P___ -1 5.00000 92.9922 1 0 0
1964352N05093 1964 120 NI BB NOT_NAMED 1964-12-17 09:00:00 NR 5.00001 92.9875 main 246 246 __________P___ -1 5.00001 92.9875 1 0 0
1964352N05093 1964 120 NI BB NOT_NAMED 1964-12-17 12:00:00 NR 5.00000 92.9891 main 246 246 __________P___ -1 5.00000 92.9891 1 0 0
1964352N05093 1964 120 NI BB NOT_NAMED 1964-12-17 15:00:00 NR 5.00000 93.0000 main 246 246 __________O___ -1 5.00000 93.0000 1 0 90
1964352N05093 1964 120 NI BB NOT_NAMED 1964-12-17 18:00:00 NR 4.99999 93.0203 main 246 246 __________P___ -1 4.99999 93.0203 1 0 90
1964352N05093 1964 120 NI BB NOT_NAMED 1964-12-17 21:00:00 NR 4.99999 93.0375 main 246 246 __________P___ -1 4.99999 93.0375 1 0 0
1964352N05093 1964 120 NI BB NOT_NAMED 1964-12-18 00:00:00 NR 4.99999 93.0359 main 246 246 __________P___ -1 4.99999 93.0359 1 0 270
1964352N05093 1964 120 NI BB NOT_NAMED 1964-12-18 03:00:00 NR 5.00000 93.0000 main 246 246 __________O___ -1 5.00000 93.0000 1 1 270
1964352N05093 1964 120 NI BB NOT_NAMED 1964-12-18 06:00:00 NR 5.00001 92.9109 main 257 257 __________P___ -1 5.00001 92.9109 1 2 270
1964352N05093 1964 120 NI BB NOT_NAMED 1964-12-18 09:00:00 NR 5.00002 92.7875 main 268 268 __________P___ -1 5.00002 92.7875 1 3 270
1964352N05093 1964 120 NI BB NOT_NAMED 1964-12-18 12:00:00 NR 5.00001 92.6453 main 290 290 __________P___ -1 5.00001 92.6453 1 3 270
1964352N05093 1964 120 NI BB NOT_NAMED 1964-12-18 15:00:00 NR 5.00000 92.5000 main 301 301 __________O___ -1 5.00000 92.5000 1 3 270
1964352N05093 1964 120 NI BB NOT_NAMED 1964-12-18 18:00:00 NR 4.99999 92.3750 main 312 312 __________P___ -1 4.99999 92.3750 1 2 270
1964352N05093 1964 120 NI BB NOT_NAMED 1964-12-18 21:00:00 NR 4.99999 92.2500 main 323 323 __________P___ -1 4.99999 92.2500 1 2 270
1964352N05093 1964 120 NI BB NOT_NAMED 1964-12-19 00:00:00 NR 4.99999 92.1250 main 345 345 __________P___ -1 4.99999 92.1250 1 2 270
1964352N05093 1964 120 NI BB NOT_NAMED 1964-12-19 03:00:00 NR 5.00000 92.0000 main 356 356 __________O___ -1 5.00000 92.0000 1 2 270
1964352N05093 1964 120 NI BB NOT_NAMED 1964-12-19 06:00:00 NR 4.99999 91.8750 main 367 367 __________P___ -1 4.99999 91.8750 1 2 270
1964352N05093 1964 120 NI BB NOT_NAMED 1964-12-19 09:00:00 NR 4.99999 91.7500 main 378 378 __________P___ -1 4.99999 91.7500 1 2 270
1964352N05093 1964 120 NI BB NOT_NAMED 1964-12-19 12:00:00 NR 4.99999 91.6250 main 400 400 __________P___ -1 4.99999 91.6250 1 2 270
1964352N05093 1964 120 NI BB NOT_NAMED 1964-12-19 15:00:00 NR 5.00000 91.5000 main 411 411 __________O___ -1 5.00000 91.5000 1 2 264
1964352N05093 1964 120 NI BB NOT_NAMED 1964-12-19 18:00:00 NR 4.97960 91.4156 main 422 422 __________P___ -1 4.97960 91.4156 1 2 258
1964352N05093 1964 120 NI BB NOT_NAMED 1964-12-19 21:00:00 NR 4.96235 91.3249 main 433 433 __________P___ -1 4.96235 91.3249 1 2 266
1964352N05093 1964 120 NI BB NOT_NAMED 1964-12-20 00:00:00 NR 4.96393 91.1968 main 444 444 __________P___ -1 4.96393 91.1968 1 3 277
1964352N05093 1964 120 NI BB NOT_NAMED 1964-12-20 03:00:00 NR 5.00000 91.0000 main 466 466 __________O___ -1 5.00000 91.0000 4 5 286
1964352N05093 1964 120 NI BB NOT_NAMED 1964-12-20 06:00:00 NR 5.10132 90.7010 main 499 499 __________P___ -1 5.10132 90.7010 4 7 289
1964352N05093 1964 120 NI BB NOT_NAMED 1964-12-20 09:00:00 NR 5.23509 90.3326 main 543 543 __________P___ -1 5.23509 90.3326 4 8 290
1964352N05093 1964 120 NI BB NOT_NAMED 1964-12-20 12:00:00 NR 5.37630 89.9229 main 587 587 __________P___ -1 5.37630 89.9229 4 9 288
1964352N05093 1964 120 NI BB NOT_NAMED 1964-12-20 15:00:00 NR 5.50000 89.5000 main 631 631 __________O___ -1 5.50000 89.5000 4 8 284
1964352N05093 1964 120 NI BB NOT_NAMED 1964-12-20 18:00:00 NR 5.57138 89.1314 main 675 675 __________P___ -1 5.57138 89.1314 4 8 279
1964352N05093 1964 120 NI BB NOT_NAMED 1964-12-20 21:00:00 NR 5.62221 88.7523 main 708 708 __________P___ -1 5.62221 88.7523 4 8 277
1964352N05093 1964 120 NI BB NOT_NAMED 1964-12-21 00:00:00 NR 5.66195 88.3471 main 722 679 __________P___ -1 5.66195 88.3471 4 9 275
1964352N05093 1964 120 NI BB NOT_NAMED 1964-12-21 03:00:00 NR 5.70000 87.9000 main 679 625 __________O___ -1 5.70000 87.9000 4 10 274
1964352N05093 1964 120 NI BB NOT_NAMED 1964-12-21 06:00:00 NR 5.72169 87.3767 main 625 561 __________P___ -1 5.72169 87.3767 4 11 273
1964352N05093 1964 120 NI BB NOT_NAMED 1964-12-21 09:00:00 NR 5.74769 86.8147 main 561 504 __________P___ -1 5.74769 86.8147 4 11 274
1964352N05093 1964 120 NI BB NOT_NAMED 1964-12-21 12:00:00 NR 5.79981 86.2454 main 494 437 __________P___ -1 5.79981 86.2454 4 11 278
1964352N05093 1964 120 NI BB NOT_NAMED 1964-12-21 15:00:00 NR 5.90000 85.7000 main 437 392 __________O___ -1 5.90000 85.7000 4 10 283
1964352N05093 1964 120 NI BB NOT_NAMED 1964-12-21 18:00:00 NR 6.02964 85.2452 main 381 332 __________P___ -1 6.02964 85.2452 4 9 290
1964352N05093 1964 120 NI BB NOT_NAMED 1964-12-21 21:00:00 NR 6.21449 84.8142 main 332 281 __________P___ -1 6.21449 84.8142 4 10 297
1964352N05093 1964 120 NI BB NOT_NAMED 1964-12-22 00:00:00 NR 6.46710 84.3762 main 281 222 __________P___ -1 6.46710 84.3762 4 11 303
1964352N05093 1964 120 NI BB NOT_NAMED 1964-12-22 03:00:00 NR 6.80000 83.9000 main 222 156 __________O___ -1 6.80000 83.9000 4 13 307
1964352N05093 1964 120 NI BB NOT_NAMED 1964-12-22 06:00:00 NR 7.27808 83.3117 main 158 101 __________P___ -1 7.27808 83.3117 4 16 310
1964352N05093 1964 120 NI BB NOT_NAMED 1964-12-22 09:00:00 NR 7.82297 82.6865 main 101 64 __________P___ -1 7.82297 82.6865 4 16 311
1964352N05093 1964 120 NI BB NOT_NAMED 1964-12-22 12:00:00 NR 8.35631 82.0679 main 71 34 __________P___ -1 8.35631 82.0679 4 15 310
1964352N05093 1964 120 NI BB NOT_NAMED 1964-12-22 15:00:00 NR 8.80000 81.5000 main 34 15 __________O___ -1 8.80000 81.5000 4 12 305
1964352N05093 1964 120 NI BB NOT_NAMED 1964-12-22 18:00:00 NR 9.03347 81.0819 main 15 0 __________P___ -1 9.03347 81.0819 4 9 296
1964352N05093 1964 120 NI BB NOT_NAMED 1964-12-22 21:00:00 NR 9.17371 80.7134 main 0 0 __________P___ -1 9.17371 80.7134 4 8 288
1964352N05093 1964 120 NI BB NOT_NAMED 1964-12-23 00:00:00 NR 9.27717 80.3383 main 0 0 __________P___ -1 9.27717 80.3383 4 8 286
1964352N05093 1964 120 NI BB NOT_NAMED 1964-12-23 03:00:00 NR 9.40000 79.9000 main 21 21 __________O___ -1 9.40000 79.9000 4 11 290
1964352N05093 1964 120 NI BB NOT_NAMED 1964-12-23 06:00:00 NR 9.64165 79.3303 main 31 0 __________P___ -1 9.64165 79.3303 4 13 293
1964352N05093 1964 120 NI BB NOT_NAMED 1964-12-23 09:00:00 NR 9.90757 78.6904 main 0 0 __________P___ -1 9.90757 78.6904 4 14 292
1964352N05093 1964 120 NI BB NOT_NAMED 1964-12-23 12:00:00 NR 10.1697 78.0053 main 0 0 __________P___ -1 10.1697 78.0053 4 15 290
1964352N05093 1964 120 NI AS NOT_NAMED 1964-12-23 15:00:00 NR 10.4000 77.3000 main 0 0 __________O___ -1 10.4000 77.3000 1 14 286
1964352N05093 1964 120 NI AS NOT_NAMED 1964-12-23 18:00:00 NR 10.5779 76.5955 main 0 0 __________P___ -1 10.5779 76.5955 1 14 283
1964352N05093 1964 120 NI AS NOT_NAMED 1964-12-23 21:00:00 NR 10.7109 75.8950 main 10 10 __________P___ -1 10.7109 75.8950 1 14 280
1964352N05093 1964 120 NI AS NOT_NAMED 1964-12-24 00:00:00 NR 10.8135 75.1969 main 76 76 __________P___ -1 10.8135 75.1969 1 14 278
1964352N05093 1964 120 NI AS NOT_NAMED 1964-12-24 03:00:00 NR 10.9000 74.5000 main 137 __________O___ -1 10.9000 74.5000 1 14 277

IBTrACS Databaseについて

本データベースは、米国NOAAが公開する1842年以降の世界の熱帯低気圧のベストトラックデータアーカイブInternational Best Track Archive for Climate Stewardship (IBTrACS)を、ウェブで閲覧しやすい形式に変換したものです。

最終更新日:2021-11-26